Time;durP1;ratioP1;P1;durP2;ratioP2;P2;SDS_P1;SDS_P2;PMS_P1;PMS_P2;Temp;Humidity;BMP_temperature;BMP_pressure;BME280_temperature;BME280_humidity;BME280_pressure;Samples;Min_cycle;Max_cycle;Signal;HPM_P1;HPM_P2
2023/06/04 00:00:18;;;;;;;5.43;2.90;;;;;;;22.58;34.43;100507.94;5091144;28;20450;-66
2023/06/04 00:02:48;;;;;;;6.18;3.17;;;;;;;22.56;34.43;100499.94;5091100;28;20044;-66
2023/06/04 00:05:16;;;;;;;7.45;2.97;;;;;;;22.54;34.50;100506.56;5091405;28;20138;-66
2023/06/04 00:07:44;;;;;;;5.53;2.65;;;;;;;22.54;34.48;100512.00;5091489;28;20048;-66
2023/06/04 00:10:12;;;;;;;4.82;2.53;;;;;;;22.53;34.30;100513.88;5095078;28;20113;-67
2023/06/04 00:12:40;;;;;;;6.85;3.20;;;;;;;22.52;34.45;100514.03;5094799;28;20044;-66
2023/06/04 00:15:09;;;;;;;4.85;2.53;;;;;;;22.51;35.07;100513.19;5095117;28;20126;-66
2023/06/04 00:17:37;;;;;;;4.95;2.80;;;;;;;22.51;35.02;100515.91;5095020;28;20044;-66
2023/06/04 00:20:08;;;;;;;6.03;2.67;;;;;;;22.50;35.29;100516.94;5094841;28;20481;-66
2023/06/04 00:22:36;;;;;;;5.90;2.75;;;;;;;22.49;34.84;100514.38;5094875;28;20074;-66
2023/06/04 00:25:05;;;;;;;5.25;2.67;;;;;;;22.47;35.26;100511.78;5094593;28;20101;-66
2023/06/04 00:27:33;;;;;;;5.80;3.08;;;;;;;22.47;34.83;100506.34;5094960;28;20056;-67
2023/06/04 00:30:01;;;;;;;5.78;2.70;;;;;;;22.46;34.85;100498.38;5094741;28;20048;-66
2023/06/04 00:32:29;;;;;;;4.78;2.63;;;;;;;22.45;35.04;100502.09;5094718;28;20044;-66
2023/06/04 00:34:58;;;;;;;5.03;2.83;;;;;;;22.43;35.02;100502.28;5094570;28;20044;-66
2023/06/04 00:37:29;;;;;;;5.13;2.67;;;;;;;22.39;34.92;100503.63;5094555;28;20055;-66
2023/06/04 00:39:57;;;;;;;6.97;3.00;;;;;;;22.38;34.63;100509.19;5094258;28;20044;-66
2023/06/04 00:42:25;;;;;;;5.38;2.70;;;;;;;22.38;35.04;100501.03;5094328;28;20048;-66
2023/06/04 00:44:58;;;;;;;5.20;2.75;;;;;;;22.38;35.21;100492.91;5094119;28;20127;-67
2023/06/04 00:47:26;;;;;;;5.67;3.30;;;;;;;22.36;35.11;100494.94;5094388;28;20055;-66
2023/06/04 00:49:58;;;;;;;6.65;3.38;;;;;;;22.29;35.08;100500.16;5094213;28;20056;-66
2023/06/04 00:52:28;;;;;;;6.80;3.33;;;;;;;22.26;34.95;100501.34;5093955;28;20441;-66
2023/06/04 00:54:56;;;;;;;5.88;2.78;;;;;;;22.24;34.80;100500.66;5094270;28;20048;-66
2023/06/04 00:57:24;;;;;;;5.70;2.83;;;;;;;22.22;35.07;100496.41;5094256;28;20146;-66
2023/06/04 00:59:52;;;;;;;5.85;3.00;;;;;;;22.20;35.12;100499.28;5094137;28;20048;-66
2023/06/04 01:02:24;;;;;;;5.68;2.90;;;;;;;22.19;34.48;100491.25;5093622;28;20048;-66
2023/06/04 01:05:02;;;;;;;4.95;2.42;;;;;;;22.18;34.97;100495.00;5093845;28;20047;-66
2023/06/04 01:07:31;;;;;;;4.60;2.45;;;;;;;22.13;34.98;100492.78;5093630;28;20047;-66
2023/06/04 01:10:00;;;;;;;4.75;2.88;;;;;;;22.09;34.96;100495.97;5093708;28;20055;-66
2023/06/04 01:12:28;;;;;;;5.55;2.67;;;;;;;22.02;35.25;100498.47;5093816;28;20125;-66
2023/06/04 01:14:56;;;;;;;6.57;2.67;;;;;;;21.96;35.41;100502.66;5093591;28;20431;-66
2023/06/04 01:17:36;;;;;;;4.75;2.63;;;;;;;21.97;35.55;100498.06;5093697;28;20083;-67
2023/06/04 01:20:32;;;;;;;5.30;2.63;;;;;;;21.99;35.45;100498.75;5093279;28;20048;-67
2023/06/04 01:23:20;;;;;;;4.32;2.60;;;;;;;21.98;35.35;100488.91;5093552;28;20047;-67
2023/06/04 01:25:50;;;;;;;6.40;2.75;;;;;;;21.95;35.42;100500.09;5093313;28;20120;-67
2023/06/04 01:28:20;;;;;;;5.05;2.60;;;;;;;21.93;35.49;100496.69;5086836;28;20051;-66
2023/06/04 01:30:50;;;;;;;5.60;2.55;;;;;;;21.92;35.38;100495.00;5093606;28;20055;-66
2023/06/04 01:33:20;;;;;;;7.93;2.80;;;;;;;21.90;35.63;100484.28;5093430;28;20040;-66
2023/06/04 01:35:49;;;;;;;5.25;2.63;;;;;;;21.92;35.56;100492.28;5093313;28;20051;-66
2023/06/04 01:38:18;;;;;;;5.32;2.88;;;;;;;21.87;36.03;100502.75;5093179;28;20043;-67
2023/06/04 01:40:47;;;;;;;6.53;2.72;;;;;;;21.85;35.67;100502.06;5093193;28;20127;-66
2023/06/04 01:43:15;;;;;;;5.93;2.80;;;;;;;21.86;35.41;100495.63;5093205;28;20097;-67
2023/06/04 01:45:43;;;;;;;6.10;2.90;;;;;;;21.86;35.66;100501.91;5093178;28;20056;-66
2023/06/04 01:48:12;;;;;;;4.10;2.22;;;;;;;21.84;35.81;100503.09;5093102;28;20048;-67
2023/06/04 01:50:40;;;;;;;4.93;2.70;;;;;;;21.83;35.88;100501.38;5093006;28;20055;-67
2023/06/04 01:53:08;;;;;;;7.07;2.75;;;;;;;21.83;35.67;100502.22;5092911;28;20139;-66
2023/06/04 01:55:38;;;;;;;5.75;2.38;;;;;;;21.82;35.99;100494.25;5093157;28;20052;-67
2023/06/04 01:58:07;;;;;;;5.32;2.53;;;;;;;21.81;35.97;100495.22;5092872;28;20101;-67
2023/06/04 02:00:35;;;;;;;4.72;2.40;;;;;;;21.77;35.97;100499.28;5092791;28;20523;-66
2023/06/04 02:03:04;;;;;;;4.60;2.50;;;;;;;21.72;36.14;100497.06;5092863;28;20048;-66
2023/06/04 02:05:32;;;;;;;5.50;2.60;;;;;;;21.67;36.02;100500.25;5092686;28;20097;-68
2023/06/04 02:08:01;;;;;;;4.70;2.53;;;;;;;21.68;36.05;100501.09;5092517;28;20058;-68
2023/06/04 02:10:30;;;;;;;5.93;2.33;;;;;;;21.69;36.31;100509.06;5092884;28;20430;-66
2023/06/04 02:13:02;;;;;;;5.72;2.83;;;;;;;21.67;36.13;100502.94;5092608;28;20054;-66
2023/06/04 02:15:31;;;;;;;5.67;2.73;;;;;;;21.68;36.36;100503.81;5102649;28;20096;-66
2023/06/04 02:18:02;;;;;;;5.30;2.50;;;;;;;21.65;36.32;100502.25;5112813;28;20284;-66
2023/06/04 02:20:30;;;;;;;5.72;2.67;;;;;;;21.68;36.22;100509.22;5113097;28;20047;-66
2023/06/04 02:22:59;;;;;;;4.70;2.30;;;;;;;21.67;36.64;100502.94;5112918;28;20101;-66
2023/06/04 02:25:27;;;;;;;5.68;2.90;;;;;;;21.66;36.58;100501.25;5112705;28;20508;-66
2023/06/04 02:27:55;;;;;;;4.32;2.50;;;;;;;21.66;36.31;100508.53;5112656;27;20043;-66
2023/06/04 02:30:25;;;;;;;6.75;3.40;;;;;;;21.62;36.35;100513.44;5111836;28;20408;-66
2023/06/04 02:32:54;;;;;;;7.35;2.85;;;;;;;21.59;36.49;100515.59;5112913;28;20075;-67
2023/06/04 02:35:24;;;;;;;4.75;2.72;;;;;;;21.57;36.91;100513.06;5112881;28;20092;-66
2023/06/04 02:37:52;;;;;;;4.38;2.38;;;;;;;21.57;36.69;100515.75;5112785;28;20052;-67
2023/06/04 02:40:21;;;;;;;5.65;2.47;;;;;;;21.58;36.55;100513.91;5112635;28;20043;-67
2023/06/04 02:42:49;;;;;;;5.18;2.75;;;;;;;21.58;36.72;100509.31;5112388;28;20480;-66
2023/06/04 02:45:17;;;;;;;4.50;2.50;;;;;;;21.59;36.72;100511.03;5112273;28;20050;-68
2023/06/04 02:47:46;;;;;;;4.70;2.63;;;;;;;21.58;36.97;100517.47;5112533;28;20067;-66
2023/06/04 02:50:16;;;;;;;6.32;2.63;;;;;;;21.58;36.79;100512.03;5112246;28;20056;-66
2023/06/04 02:52:44;;;;;;;4.70;2.30;;;;;;;21.59;36.63;100515.59;5112305;28;20418;-67
2023/06/04 02:55:12;;;;;;;4.35;2.53;;;;;;;21.59;36.96;100516.44;5112226;28;20398;-67
2023/06/04 02:57:42;;;;;;;5.50;2.50;;;;;;;21.57;36.93;100513.06;5112117;28;20052;-66
2023/06/04 03:00:12;;;;;;;5.20;2.60;;;;;;;21.54;36.80;100507.94;5112376;27;20062;-67
2023/06/04 03:02:42;;;;;;;4.47;2.67;;;;;;;21.54;37.00;100512.53;5112293;28;20043;-66
2023/06/04 03:05:14;;;;;;;4.35;2.40;;;;;;;21.52;37.08;100512.69;5112153;28;20043;-66
2023/06/04 03:07:44;;;;;;;5.32;2.50;;;;;;;21.52;36.93;100514.50;5112032;28;20051;-66
2023/06/04 03:10:14;;;;;;;6.13;2.60;;;;;;;21.53;36.92;100513.53;5111837;28;20199;-66
2023/06/04 03:12:42;;;;;;;6.55;2.40;;;;;;;21.54;37.08;100507.94;5111840;28;20518;-66
2023/06/04 03:15:11;;;;;;;5.35;2.30;;;;;;;21.54;36.98;100502.53;5112153;28;20048;-67
2023/06/04 03:17:39;;;;;;;4.50;2.30;;;;;;;21.56;37.11;100510.50;5111965;28;20044;-67
2023/06/04 03:20:09;;;;;;;6.00;2.33;;;;;;;21.55;37.23;100512.34;5111926;28;20086;-68
2023/06/04 03:22:38;;;;;;;4.57;2.35;;;;;;;21.55;37.19;100504.22;5111800;28;20053;-67
2023/06/04 03:25:07;;;;;;;4.50;2.50;;;;;;;21.55;37.25;100506.09;5111674;28;20083;-68
2023/06/04 03:27:35;;;;;;;4.57;2.38;;;;;;;21.54;36.93;100510.66;5111994;28;20050;-67
2023/06/04 03:30:04;;;;;;;4.25;2.28;;;;;;;21.55;37.25;100515.06;5111880;28;20146;-68
2023/06/04 03:32:32;;;;;;;6.25;2.60;;;;;;;21.55;37.06;100514.22;5111838;28;20100;-67
2023/06/04 03:35:03;;;;;;;4.55;2.40;;;;;;;21.53;37.23;100518.97;5111764;28;20051;-67
2023/06/04 03:37:32;;;;;;;3.92;2.33;;;;;;;21.49;37.32;100521.13;5111707;28;20070;-67
2023/06/04 03:40:05;;;;;;;4.75;2.58;;;;;;;21.50;37.29;100522.81;5111863;28;20084;-67
2023/06/04 03:42:34;;;;;;;6.05;3.00;;;;;;;21.52;37.48;100526.25;5113872;28;20092;-67
2023/06/04 03:45:02;;;;;;;4.55;2.50;;;;;;;21.52;37.28;100528.97;5115964;28;20443;-67
2023/06/04 03:47:30;;;;;;;5.03;2.55;;;;;;;21.53;37.69;100527.94;5115774;28;20408;-67
2023/06/04 03:49:58;;;;;;;4.25;2.75;;;;;;;21.54;37.21;100529.66;5115605;28;20054;-67
2023/06/04 03:52:26;;;;;;;5.05;2.30;;;;;;;21.54;37.63;100535.09;5115866;28;20043;-67
2023/06/04 03:54:55;;;;;;;6.05;2.75;;;;;;;21.56;37.54;100533.06;5115883;28;20408;-67
2023/06/04 03:57:24;;;;;;;5.30;2.60;;;;;;;21.56;37.69;100538.50;5115768;28;20044;-67
2023/06/04 03:59:52;;;;;;;5.07;2.60;;;;;;;21.56;37.40;100535.78;5115670;28;20040;-67
2023/06/04 04:02:21;;;;;;;5.97;2.70;;;;;;;21.55;37.84;100542.22;5115418;28;20050;-67
2023/06/04 04:04:49;;;;;;;5.32;2.50;;;;;;;21.52;37.66;100537.09;5115429;28;20122;-67
2023/06/04 04:07:17;;;;;;;5.88;2.70;;;;;;;21.54;37.70;100540.50;5115527;28;20047;-67
2023/06/04 04:09:46;;;;;;;7.13;2.67;;;;;;;21.55;38.09;100535.94;5115187;28;20415;-67
2023/06/04 04:12:14;;;;;;;6.70;2.92;;;;;;;21.52;38.04;100547.09;5115353;28;20124;-67
2023/06/04 04:14:43;;;;;;;4.32;2.42;;;;;;;21.52;37.58;100547.97;5115126;28;20475;-67
2023/06/04 04:17:12;;;;;;;7.25;2.58;;;;;;;21.53;37.89;100546.94;5115186;28;20463;-67
2023/06/04 04:19:41;;;;;;;6.03;2.90;;;;;;;21.55;37.57;100549.50;5115330;28;20393;-67
2023/06/04 04:22:12;;;;;;;4.93;2.83;;;;;;;21.51;37.96;100557.09;5115255;28;20071;-67
2023/06/04 04:24:41;;;;;;;4.60;2.60;;;;;;;21.45;37.60;100557.72;5115199;28;20081;-67
2023/06/04 04:27:13;;;;;;;5.63;2.78;;;;;;;21.47;38.02;100557.56;5115154;28;20039;-66
2023/06/04 04:29:43;;;;;;;5.75;2.42;;;;;;;21.49;37.85;100555.53;5114866;28;20087;-66
2023/06/04 04:32:11;;;;;;;4.70;2.60;;;;;;;21.51;37.91;100556.22;5115058;28;20055;-66
2023/06/04 04:34:51;;;;;;;4.63;2.40;;;;;;;21.50;37.78;100558.09;5114759;28;20040;-66
2023/06/04 04:37:21;;;;;;;5.25;2.40;;;;;;;21.51;37.89;100559.81;5114806;28;20050;-67
2023/06/04 04:39:51;;;;;;;5.38;2.97;;;;;;;21.51;38.05;100561.66;5114818;28;20147;-66
2023/06/04 04:42:20;;;;;;;7.05;2.70;;;;;;;21.52;38.22;100564.25;5114615;28;20055;-66
2023/06/04 04:44:50;;;;;;;7.78;2.80;;;;;;;21.54;37.93;100562.22;5114767;28;20057;-67
2023/06/04 04:47:18;;;;;;;4.18;2.38;;;;;;;21.56;37.88;100565.63;5114624;28;20417;-67
2023/06/04 04:49:46;;;;;;;6.18;2.50;;;;;;;21.60;38.16;100566.16;5114558;28;20492;-66
2023/06/04 04:52:17;;;;;;;4.38;2.63;;;;;;;21.60;38.43;100564.28;5114321;28;20062;-66
2023/06/04 04:54:46;;;;;;;5.28;2.90;;;;;;;21.62;38.45;100561.47;5113593;28;20051;-66
2023/06/04 04:57:14;;;;;;;4.85;2.50;;;;;;;21.64;38.35;100564.84;5114678;28;20074;-67
2023/06/04 04:59:42;;;;;;;4.80;2.42;;;;;;;21.65;38.45;100556.56;5114581;28;20039;-67
2023/06/04 05:02:11;;;;;;;5.00;2.40;;;;;;;21.67;38.41;100556.41;5114409;28;20039;-66
2023/06/04 05:04:40;;;;;;;4.63;2.42;;;;;;;21.67;38.05;100559.09;5114302;28;20123;-67
2023/06/04 05:07:08;;;;;;;6.47;2.47;;;;;;;21.67;38.55;100565.38;5114264;28;20131;-67
2023/06/04 05:09:38;;;;;;;4.38;2.40;;;;;;;21.69;38.16;100566.06;5113930;28;20124;-67
2023/06/04 05:12:08;;;;;;;5.43;2.25;;;;;;;21.68;38.14;100564.38;5113996;28;20058;-67
2023/06/04 05:14:36;;;;;;;4.47;2.35;;;;;;;21.67;37.85;100570.81;5114026;28;20130;-66
2023/06/04 05:17:06;;;;;;;5.57;2.35;;;;;;;21.66;37.66;100568.25;5114066;28;20039;-66
2023/06/04 05:19:37;;;;;;;5.47;2.60;;;;;;;21.66;37.64;100571.81;5114029;28;20097;-66
2023/06/04 05:22:05;;;;;;;5.38;2.40;;;;;;;21.65;37.64;100572.84;5113851;28;20040;-67
2023/06/04 05:24:33;;;;;;;4.72;2.10;;;;;;;21.65;37.43;100580.13;5114189;28;20404;-67
2023/06/04 05:27:03;;;;;;;4.90;2.00;;;;;;;21.65;37.62;100574.69;5114088;28;20048;-67
2023/06/04 05:29:31;;;;;;;5.55;2.00;;;;;;;21.65;37.43;100580.97;5106806;28;20101;-67
2023/06/04 05:32:00;;;;;;;4.10;2.28;;;;;;;21.64;37.18;100579.28;5093362;28;20393;-67
2023/06/04 05:34:29;;;;;;;6.38;2.30;;;;;;;21.63;36.98;100583.00;5093378;28;20183;-67
2023/06/04 05:36:59;;;;;;;5.13;2.20;;;;;;;21.62;36.89;100581.31;5093589;28;20119;-68
2023/06/04 05:39:27;;;;;;;5.18;1.95;;;;;;;21.63;36.83;100593.88;5093337;28;20048;-68
2023/06/04 05:41:55;;;;;;;4.57;1.88;;;;;;;21.64;37.00;100592.84;5093363;28;20131;-68
2023/06/04 05:44:23;;;;;;;4.40;2.40;;;;;;;21.64;36.73;100592.84;5093229;28;20403;-68
2023/06/04 05:46:51;;;;;;;4.53;2.00;;;;;;;21.63;36.90;100598.44;5093068;28;20075;-68
2023/06/04 05:49:20;;;;;;;5.65;2.10;;;;;;;21.64;36.91;100594.72;5092931;28;20105;-67
2023/06/04 05:51:48;;;;;;;4.18;2.25;;;;;;;21.66;36.93;100592.69;5093191;28;20054;-68
2023/06/04 05:54:17;;;;;;;4.18;2.17;;;;;;;21.68;37.06;100590.66;5093188;28;20044;-67
2023/06/04 05:56:45;;;;;;;5.00;2.05;;;;;;;21.67;36.92;100587.09;5092967;28;20044;-67
2023/06/04 05:59:14;;;;;;;4.22;2.10;;;;;;;21.66;36.71;100596.25;5092926;28;20048;-66
2023/06/04 06:01:43;;;;;;;3.55;1.85;;;;;;;21.68;36.89;100594.25;5092568;28;20525;-65
2023/06/04 06:04:12;;;;;;;4.35;2.03;;;;;;;21.67;36.65;100589.81;5092955;28;20055;-66
2023/06/04 06:06:43;;;;;;;6.70;2.20;;;;;;;21.69;36.47;100592.38;5092581;28;20051;-66
2023/06/04 06:09:11;;;;;;;3.83;1.80;;;;;;;21.69;36.54;100593.22;5092542;28;20048;-65
2023/06/04 06:11:41;;;;;;;3.17;1.83;;;;;;;21.70;36.67;100592.22;5092228;28;20135;-66
2023/06/04 06:14:09;;;;;;;3.50;1.90;;;;;;;21.73;36.77;100582.94;5092337;28;20044;-66
2023/06/04 06:16:37;;;;;;;3.47;2.00;;;;;;;21.75;36.85;100582.75;5092161;28;20456;-66
2023/06/04 06:19:06;;;;;;;3.83;2.08;;;;;;;21.77;36.67;100583.47;5091977;28;20040;-66
2023/06/04 06:21:34;;;;;;;5.18;2.10;;;;;;;21.78;36.69;100593.31;5089855;28;20087;-66
2023/06/04 06:24:02;;;;;;;3.30;1.92;;;;;;;21.77;36.59;100595.16;5092220;28;20048;-68
2023/06/04 06:26:31;;;;;;;3.42;1.80;;;;;;;21.76;35.99;100598.91;5092379;28;20120;-68
2023/06/04 06:29:01;;;;;;;5.03;2.10;;;;;;;21.76;36.20;100592.63;5092199;28;20044;-68
2023/06/04 06:31:29;;;;;;;5.63;2.30;;;;;;;21.78;36.39;100596.03;5092419;28;20052;-66
2023/06/04 06:33:57;;;;;;;4.05;2.05;;;;;;;21.79;36.25;100595.00;5092437;28;20083;-67
2023/06/04 06:36:26;;;;;;;3.33;2.03;;;;;;;21.79;36.03;100592.28;5092322;28;20154;-67
2023/06/04 06:38:55;;;;;;;4.00;2.40;;;;;;;21.78;35.99;100591.44;5091872;28;20048;-67
2023/06/04 06:41:23;;;;;;;4.30;2.10;;;;;;;21.80;36.18;100600.28;5091027;28;20040;-66
2023/06/04 06:43:52;;;;;;;4.75;2.42;;;;;;;21.82;36.10;100592.00;5091498;28;20056;-66
2023/06/04 06:46:21;;;;;;;4.70;2.22;;;;;;;21.84;36.10;100598.97;5091378;28;20089;-67
2023/06/04 06:48:49;;;;;;;5.03;2.53;;;;;;;21.86;36.24;100599.66;5091581;28;20214;-65
2023/06/04 06:51:17;;;;;;;8.70;3.08;;;;;;;21.87;36.33;100598.66;5091532;28;20044;-65
2023/06/04 06:53:50;;;;;;;5.15;2.88;;;;;;;21.89;36.33;100604.75;5091461;28;20052;-63
2023/06/04 06:56:18;;;;;;;5.82;2.83;;;;;;;21.92;36.38;100614.50;5091647;28;20131;-63
2023/06/04 06:58:47;;;;;;;5.18;2.33;;;;;;;21.92;36.36;100606.34;5092201;28;20070;-61
2023/06/04 07:01:15;;;;;;;4.78;2.55;;;;;;;21.93;36.47;100610.75;5092706;28;20040;-63
2023/06/04 07:03:45;;;;;;;3.97;2.38;;;;;;;21.93;36.05;100616.19;5089126;28;20417;-65
2023/06/04 07:06:13;;;;;;;4.18;2.45;;;;;;;21.93;36.21;100616.19;5091822;28;20101;-64
2023/06/04 07:08:42;;;;;;;4.30;2.50;;;;;;;21.93;35.94;100627.06;5091310;28;20051;-64
2023/06/04 07:11:11;;;;;;;3.95;2.35;;;;;;;21.93;35.75;100621.63;5091811;28;20147;-65
2023/06/04 07:13:41;;;;;;;4.45;2.20;;;;;;;21.92;35.67;100631.63;5091411;28;20127;-64
2023/06/04 07:16:09;;;;;;;3.70;2.17;;;;;;;21.92;35.59;100623.47;5091273;28;20488;-64
2023/06/04 07:18:37;;;;;;;4.05;2.20;;;;;;;21.93;35.44;100622.47;5091316;28;20048;-64
2023/06/04 07:21:06;;;;;;;4.72;2.40;;;;;;;21.94;35.57;100620.59;5091430;28;20439;-64
2023/06/04 07:23:35;;;;;;;5.53;2.42;;;;;;;21.95;35.35;100623.16;5091349;28;20055;-64
2023/06/04 07:26:03;;;;;;;4.30;2.22;;;;;;;21.97;35.57;100625.72;5091531;28;20067;-64
2023/06/04 07:28:31;;;;;;;5.00;2.35;;;;;;;21.97;35.38;100629.28;5091596;28;20044;-64
2023/06/04 07:31:00;;;;;;;4.45;2.00;;;;;;;21.98;35.45;100625.56;5091232;28;20048;-65
2023/06/04 07:33:28;;;;;;;5.25;2.35;;;;;;;22.00;35.45;100622.69;5091237;28;20538;-64
2023/06/04 07:35:56;;;;;;;5.40;2.30;;;;;;;22.02;35.62;100611.69;5091143;28;20040;-68
2023/06/04 07:38:26;;;;;;;4.28;2.30;;;;;;;22.02;35.72;100620.69;5091877;28;20160;-65
2023/06/04 07:40:55;;;;;;;4.55;2.08;;;;;;;22.03;35.61;100622.38;5091150;28;20044;-68
2023/06/04 07:43:23;;;;;;;5.68;2.30;;;;;;;22.05;35.46;100624.94;5090716;28;20044;-67
2023/06/04 07:45:51;;;;;;;4.72;2.28;;;;;;;22.06;35.46;100622.06;5088067;28;20104;-71
2023/06/04 07:48:20;;;;;;;4.53;2.25;;;;;;;22.06;35.14;100622.06;5091213;28;20037;-68
2023/06/04 07:50:48;;;;;;;5.53;2.20;;;;;;;22.06;35.11;100621.22;5090960;28;20040;-66
2023/06/04 07:53:17;;;;;;;5.07;1.98;;;;;;;22.04;34.97;100615.09;5090576;28;20044;-66
2023/06/04 07:55:46;;;;;;;4.68;2.00;;;;;;;22.04;34.71;100624.09;5090964;28;20150;-66
2023/06/04 07:58:14;;;;;;;5.55;2.35;;;;;;;22.06;35.42;100632.06;5090605;28;20043;-66
2023/06/04 08:00:42;;;;;;;5.53;2.08;;;;;;;22.04;34.76;100626.81;5090540;28;20067;-66
2023/06/04 08:03:11;;;;;;;4.43;2.08;;;;;;;22.03;34.40;100629.69;5090416;28;20048;-71
2023/06/04 08:05:39;;;;;;;4.13;2.00;;;;;;;22.02;34.64;100636.97;5090364;28;20485;-67
2023/06/04 08:08:08;;;;;;;4.05;2.17;;;;;;;22.02;34.31;100636.97;5090749;28;20086;-67
2023/06/04 08:10:36;;;;;;;4.65;2.05;;;;;;;22.05;35.00;100642.09;5090998;28;20131;-68
2023/06/04 08:13:05;;;;;;;5.00;2.10;;;;;;;22.05;34.82;100631.22;5090912;28;20052;-68
2023/06/04 08:15:34;;;;;;;5.03;2.33;;;;;;;22.06;34.96;100641.06;5090137;28;20497;-68
2023/06/04 08:18:02;;;;;;;8.52;2.67;;;;;;;22.07;35.80;100637.38;5095003;28;20414;-66
2023/06/04 08:20:31;;;;;;;5.07;2.58;;;;;;;22.09;36.12;100635.34;5088404;28;20040;-67
2023/06/04 08:22:59;;;;;;;10.98;2.97;;;;;;;22.16;37.48;100631.00;5091427;28;20127;-67
2023/06/04 08:25:27;;;;;;;9.07;2.72;;;;;;;22.21;36.61;100633.25;5090575;28;20094;-67
2023/06/04 08:27:55;;;;;;;10.52;2.88;;;;;;;22.24;36.99;100631.06;5090557;28;20044;-67
2023/06/04 08:30:27;;;;;;;8.35;2.60;;;;;;;22.30;37.27;100631.47;5093950;28;20044;-66
2023/06/04 08:32:55;;;;;;;10.25;2.78;;;;;;;22.33;37.03;100631.13;5094412;28;20097;-68
2023/06/04 08:35:23;;;;;;;8.30;2.47;;;;;;;22.34;36.52;100636.41;5094310;28;20177;-67
2023/06/04 08:37:51;;;;;;;5.70;2.58;;;;;;;22.35;35.69;100632.66;5094327;28;20048;-67
2023/06/04 08:40:19;;;;;;;6.20;2.50;;;;;;;22.34;34.37;100635.56;5093867;28;20040;-67
2023/06/04 08:42:50;;;;;;;4.18;2.20;;;;;;;22.32;33.41;100635.72;5093849;28;20075;-67
2023/06/04 08:45:21;;;;;;;5.65;2.33;;;;;;;22.35;33.91;100634.53;5094050;28;20040;-66
2023/06/04 08:47:52;;;;;;;8.30;2.35;;;;;;;22.33;33.72;100633.84;5093662;28;20040;-66
2023/06/04 08:50:22;;;;;;;6.18;2.15;;;;;;;22.32;32.98;100632.16;5093512;28;20048;-69
2023/06/04 08:52:54;;;;;;;5.88;2.20;;;;;;;22.32;33.30;100627.56;5091335;28;20390;-66
2023/06/04 08:55:23;;;;;;;3.42;1.90;;;;;;;22.31;32.83;100625.00;5093920;28;20048;-66
2023/06/04 08:57:51;;;;;;;4.30;2.05;;;;;;;22.26;31.72;100623.59;5093958;28;20059;-66
2023/06/04 09:00:20;;;;;;;4.63;2.00;;;;;;;22.22;31.65;100622.22;5094043;28;20056;-66
2023/06/04 09:02:51;;;;;;;5.07;2.30;;;;;;;22.23;32.27;100614.94;5093985;28;20044;-68
2023/06/04 09:05:22;;;;;;;4.65;1.85;;;;;;;22.26;32.82;100620.03;5093889;28;20076;-68
2023/06/04 09:07:53;;;;;;;6.30;2.00;;;;;;;22.26;32.25;100628.19;5093200;28;20044;-67
2023/06/04 09:10:24;;;;;;;4.70;1.80;;;;;;;22.20;31.83;100616.09;5093747;28;20047;-70
2023/06/04 09:12:53;;;;;;;4.60;2.30;;;;;;;22.16;31.50;100628.28;5093619;28;20048;-66
2023/06/04 09:15:21;;;;;;;5.53;1.92;;;;;;;22.20;33.65;100623.41;5090783;28;20067;-67
2023/06/04 09:17:51;;;;;;;5.30;2.15;;;;;;;22.28;33.94;100626.16;5108917;28;20054;-66
2023/06/04 09:20:20;;;;;;;52.30;6.03;;;;;;;22.33;34.53;100623.84;5113921;28;20429;-66
2023/06/04 09:22:48;;;;;;;28.60;3.97;;;;;;;22.51;34.64;100623.78;5114015;28;20047;-65
2023/06/04 09:25:22;;;;;;;8.52;2.72;;;;;;;22.52;32.90;100623.63;5114053;28;20559;-66
2023/06/04 09:27:50;;;;;;;6.07;2.08;;;;;;;22.45;31.95;100627.13;5113824;28;20113;-65
2023/06/04 09:30:19;;;;;;;5.50;2.45;;;;;;;21.99;32.15;100623.69;5113973;27;20074;-64
2023/06/04 09:32:50;;;;;;;4.97;2.28;;;;;;;21.83;33.14;100624.41;5113470;28;20138;-65
2023/06/04 09:35:20;;;;;;;7.68;2.47;;;;;;;21.71;32.86;100631.97;5113778;28;20082;-63
2023/06/04 09:37:56;;;;;;;4.78;2.13;;;;;;;21.80;33.56;100621.16;5107942;28;20516;-65
2023/06/04 09:40:25;;;;;;;7.43;2.70;;;;;;;21.88;33.38;100629.38;5092845;28;20056;-63
2023/06/04 09:42:55;;;;;;;7.20;2.65;;;;;;;21.85;32.70;100630.53;5093046;28;20087;-64
2023/06/04 09:45:31;;;;;;;4.82;2.08;;;;;;;21.87;32.77;100627.66;5092890;28;20404;-64
2023/06/04 09:47:59;;;;;;;7.90;2.33;;;;;;;21.92;33.08;100625.34;5093156;28;20365;-64
2023/06/04 09:50:31;;;;;;;7.35;1.90;;;;;;;22.09;35.47;100629.91;5092813;28;20118;-63
2023/06/04 09:53:01;;;;;;;3.42;1.80;;;;;;;22.14;34.49;100633.03;5093012;28;20040;-62
2023/06/04 09:55:29;;;;;;;5.03;1.95;;;;;;;22.15;33.07;100631.16;5092016;28;20486;-63
2023/06/04 09:58:00;;;;;;;3.97;2.03;;;;;;;22.04;32.02;100634.09;5092248;28;20420;-63
2023/06/04 10:00:28;;;;;;;4.97;2.13;;;;;;;22.01;32.43;100624.41;5090665;28;20044;-64
2023/06/04 10:02:59;;;;;;;5.47;2.10;;;;;;;22.06;32.42;100622.06;5092727;28;20485;-62
2023/06/04 10:05:32;;;;;;;5.63;2.10;;;;;;;22.10;32.79;100630.78;5092541;28;20058;-65
2023/06/04 10:08:03;;;;;;;;;;;;;;;22.13;32.61;100628.59;5092806;28;20131;-60
2023/06/04 10:10:36;;;;;;;3.72;2.20;;;;;;;22.18;32.57;100630.84;5092339;28;20341;-62
2023/06/04 10:13:07;;;;;;;4.25;2.05;;;;;;;22.21;32.71;100636.81;5092579;28;20044;-60
2023/06/04 10:15:37;;;;;;;6.35;2.10;;;;;;;22.22;32.49;100630.38;5092663;28;20087;-60
2023/06/04 10:18:07;;;;;;;12.90;4.00;;;;;;;22.27;33.44;100633.47;5092923;28;20040;-61
2023/06/04 10:20:39;;;;;;;15.18;5.38;;;;;;;22.32;34.14;100632.16;5092248;28;20046;-63
2023/06/04 10:23:08;;;;;;;27.48;8.10;;;;;;;22.37;34.95;100629.78;5092080;28;20036;-60
2023/06/04 10:25:36;;;;;;;13.57;4.53;;;;;;;22.36;33.08;100630.81;5092365;28;20117;-60
2023/06/04 10:28:05;;;;;;;45.40;17.95;;;;;;;22.41;34.49;100626.59;5092290;28;20048;-64
2023/06/04 10:30:33;;;;;;;24.10;8.85;;;;;;;22.40;32.77;100624.06;5092099;28;20043;-62
2023/06/04 10:33:02;;;;;;;25.92;7.78;;;;;;;22.37;32.58;100629.78;5092021;28;20057;-62
2023/06/04 10:35:32;;;;;;;16.15;7.15;;;;;;;22.35;33.05;100634.53;5091855;28;20515;-62
2023/06/04 10:38:11;;;;;;;7.95;3.15;;;;;;;22.32;33.23;100633.00;5092141;28;20128;-66
2023/06/04 10:40:40;;;;;;;9.70;3.05;;;;;;;22.28;33.44;100620.72;5092113;28;20044;-65
2023/06/04 10:43:08;;;;;;;6.43;2.70;;;;;;;22.28;33.26;100632.44;5091979;28;20039;-64
2023/06/04 10:45:37;;;;;;;6.13;2.45;;;;;;;22.32;33.26;100634.88;5091851;28;20048;-65
2023/06/04 10:48:06;;;;;;;5.13;2.45;;;;;;;22.31;33.26;100636.72;5091769;28;20508;-67
2023/06/04 10:50:36;;;;;;;4.68;2.05;;;;;;;22.33;33.39;100634.69;5092148;28;20105;-72
2023/06/04 10:53:05;;;;;;;8.35;2.42;;;;;;;22.36;33.12;100630.81;5091154;28;20048;-68
2023/06/04 10:55:44;;;;;;;4.72;2.30;;;;;;;22.39;33.37;100633.19;5091298;28;20462;-69
2023/06/04 10:58:13;;;;;;;4.78;2.20;;;;;;;22.41;33.09;100632.03;5091409;28;20072;-69
2023/06/04 11:00:42;;;;;;;6.22;2.47;;;;;;;22.45;33.08;100629.84;5091402;28;20192;-68
2023/06/04 11:03:12;;;;;;;5.53;2.13;;;;;;;22.44;32.85;100626.28;5090802;28;20089;-68
2023/06/04 11:05:42;;;;;;;5.85;2.20;;;;;;;22.43;33.08;100623.72;5090442;28;20058;-68
2023/06/04 11:08:13;;;;;;;4.40;2.47;;;;;;;22.38;33.24;100626.06;5090486;28;20060;-67
2023/06/04 11:10:44;;;;;;;3.85;2.00;;;;;;;22.39;32.82;100627.75;5090783;28;20447;-69
2023/06/04 11:13:13;;;;;;;3.80;2.33;;;;;;;22.25;32.94;100630.06;5090442;28;20451;-69
2023/06/04 11:15:43;;;;;;;5.07;2.33;;;;;;;22.14;33.30;100624.03;5091398;28;20328;-67
2023/06/04 11:18:15;;;;;;;4.78;2.22;;;;;;;22.10;33.17;100631.66;5090454;28;20052;-71
2023/06/04 11:20:45;;;;;;;5.50;2.40;;;;;;;22.13;33.64;100620.47;5090623;28;20101;-74
2023/06/04 11:23:14;;;;;;;6.85;2.42;;;;;;;22.17;33.68;100619.13;5090971;28;20474;-72
2023/06/04 11:25:45;;;;;;;3.95;2.20;;;;;;;22.20;33.24;100626.97;5090352;28;20075;-64
2023/06/04 11:28:18;;;;;;;5.28;2.60;;;;;;;22.28;35.13;100620.72;5091115;28;20079;-62
2023/06/04 11:30:58;;;;;;;10.38;2.95;;;;;;;22.40;35.77;100626.78;5090685;28;20048;-62
2023/06/04 11:33:26;;;;;;;8.68;2.22;;;;;;;22.48;34.89;100626.81;5090508;28;20083;-70